sensor_id;sensor_type;location;lat;lon;timestamp;P1;durP1;ratioP1;P2;durP2;ratioP2
2810;SDS011;1413;52.440;13.506;2022-11-27T00:01:15;28.13;;;9.77;;
2810;SDS011;1413;52.440;13.506;2022-11-27T00:03:44;20.20;;;8.52;;
2810;SDS011;1413;52.440;13.506;2022-11-27T00:06:13;22.08;;;9.20;;
2810;SDS011;1413;52.440;13.506;2022-11-27T00:08:41;25.80;;;8.98;;
2810;SDS011;1413;52.440;13.506;2022-11-27T00:11:09;21.60;;;8.35;;
2810;SDS011;1413;52.440;13.506;2022-11-27T00:13:37;20.10;;;9.13;;
2810;SDS011;1413;52.440;13.506;2022-11-27T00:16:05;18.95;;;8.13;;
2810;SDS011;1413;52.440;13.506;2022-11-27T00:18:34;23.08;;;8.35;;
2810;SDS011;1413;52.440;13.506;2022-11-27T00:21:04;18.40;;;8.52;;
2810;SDS011;1413;52.440;13.506;2022-11-27T00:23:32;22.35;;;9.40;;
2810;SDS011;1413;52.440;13.506;2022-11-27T00:26:00;23.00;;;8.43;;
2810;SDS011;1413;52.440;13.506;2022-11-27T00:28:27;20.23;;;7.40;;
2810;SDS011;1413;52.440;13.506;2022-11-27T00:30:56;24.17;;;8.52;;
2810;SDS011;1413;52.440;13.506;2022-11-27T00:33:24;19.00;;;7.18;;
2810;SDS011;1413;52.440;13.506;2022-11-27T00:35:52;22.95;;;7.50;;
2810;SDS011;1413;52.440;13.506;2022-11-27T00:38:21;25.40;;;8.52;;
2810;SDS011;1413;52.440;13.506;2022-11-27T00:40:48;24.80;;;8.18;;
2810;SDS011;1413;52.440;13.506;2022-11-27T00:43:16;25.77;;;9.10;;
2810;SDS011;1413;52.440;13.506;2022-11-27T00:45:47;27.70;;;8.60;;
2810;SDS011;1413;52.440;13.506;2022-11-27T00:48:14;26.30;;;8.93;;
2810;SDS011;1413;52.440;13.506;2022-11-27T00:50:42;21.17;;;8.30;;
2810;SDS011;1413;52.440;13.506;2022-11-27T00:53:09;23.42;;;7.97;;
2810;SDS011;1413;52.440;13.506;2022-11-27T00:55:38;23.42;;;7.40;;
2810;SDS011;1413;52.440;13.506;2022-11-27T00:58:06;20.67;;;8.73;;
2810;SDS011;1413;52.440;13.506;2022-11-27T01:00:33;27.63;;;7.82;;
2810;SDS011;1413;52.440;13.506;2022-11-27T01:03:01;21.30;;;8.45;;
2810;SDS011;1413;52.440;13.506;2022-11-27T01:05:28;20.13;;;8.30;;
2810;SDS011;1413;52.440;13.506;2022-11-27T01:07:56;17.50;;;7.60;;
2810;SDS011;1413;52.440;13.506;2022-11-27T01:10:24;26.98;;;9.40;;
2810;SDS011;1413;52.440;13.506;2022-11-27T01:12:53;25.40;;;8.07;;
2810;SDS011;1413;52.440;13.506;2022-11-27T01:15:20;22.98;;;8.80;;
2810;SDS011;1413;52.440;13.506;2022-11-27T01:17:47;20.38;;;8.25;;
2810;SDS011;1413;52.440;13.506;2022-11-27T01:20:15;23.15;;;8.57;;
2810;SDS011;1413;52.440;13.506;2022-11-27T01:22:43;25.38;;;8.50;;
2810;SDS011;1413;52.440;13.506;2022-11-27T01:25:10;20.00;;;8.43;;
2810;SDS011;1413;52.440;13.506;2022-11-27T01:27:37;19.38;;;8.20;;
2810;SDS011;1413;52.440;13.506;2022-11-27T01:30:07;24.02;;;8.40;;
2810;SDS011;1413;52.440;13.506;2022-11-27T01:32:35;20.90;;;8.57;;
2810;SDS011;1413;52.440;13.506;2022-11-27T01:35:02;22.65;;;8.43;;
2810;SDS011;1413;52.440;13.506;2022-11-27T01:37:30;23.30;;;8.30;;
2810;SDS011;1413;52.440;13.506;2022-11-27T01:39:57;24.83;;;8.75;;
2810;SDS011;1413;52.440;13.506;2022-11-27T01:42:25;24.55;;;8.80;;
2810;SDS011;1413;52.440;13.506;2022-11-27T01:44:53;22.95;;;8.77;;
2810;SDS011;1413;52.440;13.506;2022-11-27T01:47:33;21.30;;;8.45;;
2810;SDS011;1413;52.440;13.506;2022-11-27T01:50:11;23.10;;;8.57;;
2810;SDS011;1413;52.440;13.506;2022-11-27T01:52:40;21.92;;;8.80;;
2810;SDS011;1413;52.440;13.506;2022-11-27T01:55:10;22.80;;;8.93;;
2810;SDS011;1413;52.440;13.506;2022-11-27T01:57:39;23.35;;;8.02;;
2810;SDS011;1413;52.440;13.506;2022-11-27T02:00:08;17.58;;;8.00;;
2810;SDS011;1413;52.440;13.506;2022-11-27T02:02:39;20.30;;;8.55;;
2810;SDS011;1413;52.440;13.506;2022-11-27T02:05:07;21.45;;;8.88;;
2810;SDS011;1413;52.440;13.506;2022-11-27T02:07:35;20.70;;;8.45;;
2810;SDS011;1413;52.440;13.506;2022-11-27T02:10:04;24.80;;;8.52;;
2810;SDS011;1413;52.440;13.506;2022-11-27T02:12:32;18.92;;;8.43;;
2810;SDS011;1413;52.440;13.506;2022-11-27T02:15:03;19.35;;;8.15;;
2810;SDS011;1413;52.440;13.506;2022-11-27T02:17:35;19.90;;;8.50;;
2810;SDS011;1413;52.440;13.506;2022-11-27T02:20:12;20.15;;;8.38;;
2810;SDS011;1413;52.440;13.506;2022-11-27T02:22:43;22.00;;;8.02;;
2810;SDS011;1413;52.440;13.506;2022-11-27T02:25:17;21.45;;;9.55;;
2810;SDS011;1413;52.440;13.506;2022-11-27T02:28:01;18.02;;;7.82;;
2810;SDS011;1413;52.440;13.506;2022-11-27T02:32:59;20.85;;;7.20;;
2810;SDS011;1413;52.440;13.506;2022-11-27T02:35:31;19.75;;;8.05;;
2810;SDS011;1413;52.440;13.506;2022-11-27T02:38:01;20.13;;;8.30;;
2810;SDS011;1413;52.440;13.506;2022-11-27T02:40:33;22.80;;;8.55;;
2810;SDS011;1413;52.440;13.506;2022-11-27T02:43:02;23.65;;;8.85;;
2810;SDS011;1413;52.440;13.506;2022-11-27T02:48:01;24.88;;;8.40;;
2810;SDS011;1413;52.440;13.506;2022-11-27T02:50:29;21.58;;;8.68;;
2810;SDS011;1413;52.440;13.506;2022-11-27T02:52:59;19.15;;;8.27;;
2810;SDS011;1413;52.440;13.506;2022-11-27T02:55:29;29.40;;;9.88;;
2810;SDS011;1413;52.440;13.506;2022-11-27T02:57:57;24.67;;;9.82;;
2810;SDS011;1413;52.440;13.506;2022-11-27T03:00:27;31.35;;;9.73;;
2810;SDS011;1413;52.440;13.506;2022-11-27T03:02:56;25.50;;;9.13;;
2810;SDS011;1413;52.440;13.506;2022-11-27T03:05:25;23.83;;;9.40;;
2810;SDS011;1413;52.440;13.506;2022-11-27T03:07:55;23.52;;;9.98;;
2810;SDS011;1413;52.440;13.506;2022-11-27T03:10:27;22.50;;;8.95;;
2810;SDS011;1413;52.440;13.506;2022-11-27T03:12:56;25.30;;;9.88;;
2810;SDS011;1413;52.440;13.506;2022-11-27T03:15:25;28.45;;;10.30;;
2810;SDS011;1413;52.440;13.506;2022-11-27T03:17:55;26.20;;;10.20;;
2810;SDS011;1413;52.440;13.506;2022-11-27T03:20:29;28.25;;;10.77;;
2810;SDS011;1413;52.440;13.506;2022-11-27T03:22:57;25.00;;;9.60;;
2810;SDS011;1413;52.440;13.506;2022-11-27T03:25:24;21.30;;;9.07;;
2810;SDS011;1413;52.440;13.506;2022-11-27T03:27:53;28.58;;;11.13;;
2810;SDS011;1413;52.440;13.506;2022-11-27T03:30:22;27.15;;;10.88;;
2810;SDS011;1413;52.440;13.506;2022-11-27T03:32:49;25.77;;;10.68;;
2810;SDS011;1413;52.440;13.506;2022-11-27T03:35:17;26.70;;;10.05;;
2810;SDS011;1413;52.440;13.506;2022-11-27T03:37:47;33.58;;;11.63;;
2810;SDS011;1413;52.440;13.506;2022-11-27T03:40:14;24.05;;;9.93;;
2810;SDS011;1413;52.440;13.506;2022-11-27T03:42:46;28.60;;;10.13;;
2810;SDS011;1413;52.440;13.506;2022-11-27T03:45:16;27.23;;;10.13;;
2810;SDS011;1413;52.440;13.506;2022-11-27T03:47:50;25.08;;;11.05;;
2810;SDS011;1413;52.440;13.506;2022-11-27T03:50:21;27.30;;;10.50;;
2810;SDS011;1413;52.440;13.506;2022-11-27T03:52:58;24.95;;;9.82;;
2810;SDS011;1413;52.440;13.506;2022-11-27T03:55:28;24.30;;;10.10;;
2810;SDS011;1413;52.440;13.506;2022-11-27T04:00:25;21.67;;;8.95;;
2810;SDS011;1413;52.440;13.506;2022-11-27T04:02:53;29.38;;;10.73;;
2810;SDS011;1413;52.440;13.506;2022-11-27T04:05:21;26.90;;;11.00;;
2810;SDS011;1413;52.440;13.506;2022-11-27T04:07:49;26.35;;;9.65;;
2810;SDS011;1413;52.440;13.506;2022-11-27T04:10:18;24.23;;;10.05;;
2810;SDS011;1413;52.440;13.506;2022-11-27T04:12:45;25.40;;;10.10;;
2810;SDS011;1413;52.440;13.506;2022-11-27T04:15:13;23.75;;;10.00;;
2810;SDS011;1413;52.440;13.506;2022-11-27T04:17:40;22.42;;;8.90;;
2810;SDS011;1413;52.440;13.506;2022-11-27T04:20:09;20.52;;;9.02;;
2810;SDS011;1413;52.440;13.506;2022-11-27T04:22:37;24.27;;;9.98;;
2810;SDS011;1413;52.440;13.506;2022-11-27T04:25:04;20.75;;;9.48;;
2810;SDS011;1413;52.440;13.506;2022-11-27T04:27:33;18.60;;;7.57;;
2810;SDS011;1413;52.440;13.506;2022-11-27T04:30:01;18.95;;;8.45;;
2810;SDS011;1413;52.440;13.506;2022-11-27T04:32:28;19.67;;;8.07;;
2810;SDS011;1413;52.440;13.506;2022-11-27T04:34:56;21.90;;;9.13;;
2810;SDS011;1413;52.440;13.506;2022-11-27T04:37:23;19.98;;;8.57;;
2810;SDS011;1413;52.440;13.506;2022-11-27T04:39:51;18.48;;;8.32;;
2810;SDS011;1413;52.440;13.506;2022-11-27T04:42:18;23.15;;;9.10;;
2810;SDS011;1413;52.440;13.506;2022-11-27T04:44:47;22.25;;;8.52;;
2810;SDS011;1413;52.440;13.506;2022-11-27T04:47:14;20.92;;;8.05;;
2810;SDS011;1413;52.440;13.506;2022-11-27T04:49:42;19.35;;;8.05;;
2810;SDS011;1413;52.440;13.506;2022-11-27T04:52:10;21.85;;;8.55;;
2810;SDS011;1413;52.440;13.506;2022-11-27T04:54:37;20.80;;;8.93;;
2810;SDS011;1413;52.440;13.506;2022-11-27T04:57:05;21.77;;;8.70;;
2810;SDS011;1413;52.440;13.506;2022-11-27T04:59:33;25.15;;;9.25;;
2810;SDS011;1413;52.440;13.506;2022-11-27T05:02:01;20.02;;;9.57;;
2810;SDS011;1413;52.440;13.506;2022-11-27T05:04:29;17.17;;;7.88;;
2810;SDS011;1413;52.440;13.506;2022-11-27T05:06:56;21.50;;;8.95;;
2810;SDS011;1413;52.440;13.506;2022-11-27T05:09:24;19.70;;;8.00;;
2810;SDS011;1413;52.440;13.506;2022-11-27T05:11:51;18.17;;;7.32;;
2810;SDS011;1413;52.440;13.506;2022-11-27T05:14:19;18.63;;;7.35;;
2810;SDS011;1413;52.440;13.506;2022-11-27T05:16:48;21.65;;;8.07;;
2810;SDS011;1413;52.440;13.506;2022-11-27T05:19:18;21.00;;;7.72;;
2810;SDS011;1413;52.440;13.506;2022-11-27T05:21:46;22.55;;;7.93;;
2810;SDS011;1413;52.440;13.506;2022-11-27T05:24:14;18.15;;;7.47;;
2810;SDS011;1413;52.440;13.506;2022-11-27T05:26:42;18.45;;;8.05;;
2810;SDS011;1413;52.440;13.506;2022-11-27T05:29:09;21.30;;;7.63;;
2810;SDS011;1413;52.440;13.506;2022-11-27T05:31:37;21.58;;;7.93;;
2810;SDS011;1413;52.440;13.506;2022-11-27T05:34:05;19.63;;;8.35;;
2810;SDS011;1413;52.440;13.506;2022-11-27T05:36:34;24.42;;;8.35;;
2810;SDS011;1413;52.440;13.506;2022-11-27T05:39:02;23.95;;;9.38;;
2810;SDS011;1413;52.440;13.506;2022-11-27T05:41:29;19.65;;;8.63;;
2810;SDS011;1413;52.440;13.506;2022-11-27T05:43:57;23.15;;;9.60;;
2810;SDS011;1413;52.440;13.506;2022-11-27T05:46:24;21.35;;;9.77;;
2810;SDS011;1413;52.440;13.506;2022-11-27T05:48:52;22.40;;;8.68;;
2810;SDS011;1413;52.440;13.506;2022-11-27T05:51:20;21.70;;;8.75;;
2810;SDS011;1413;52.440;13.506;2022-11-27T05:53:49;22.58;;;8.68;;
2810;SDS011;1413;52.440;13.506;2022-11-27T05:56:16;20.70;;;8.90;;
2810;SDS011;1413;52.440;13.506;2022-11-27T05:58:45;23.55;;;9.52;;
2810;SDS011;1413;52.440;13.506;2022-11-27T06:01:13;23.83;;;8.80;;
2810;SDS011;1413;52.440;13.506;2022-11-27T06:03:41;19.98;;;8.63;;
2810;SDS011;1413;52.440;13.506;2022-11-27T06:06:09;21.92;;;8.35;;
2810;SDS011;1413;52.440;13.506;2022-11-27T06:08:38;18.30;;;8.95;;
2810;SDS011;1413;52.440;13.506;2022-11-27T06:11:07;19.50;;;8.80;;
2810;SDS011;1413;52.440;13.506;2022-11-27T06:13:35;19.67;;;8.63;;
2810;SDS011;1413;52.440;13.506;2022-11-27T06:16:04;22.33;;;8.82;;
2810;SDS011;1413;52.440;13.506;2022-11-27T06:18:32;17.45;;;8.48;;
2810;SDS011;1413;52.440;13.506;2022-11-27T06:20:59;20.35;;;8.82;;
2810;SDS011;1413;52.440;13.506;2022-11-27T06:23:27;22.70;;;9.27;;
2810;SDS011;1413;52.440;13.506;2022-11-27T06:25:54;23.70;;;10.02;;
2810;SDS011;1413;52.440;13.506;2022-11-27T06:28:23;25.55;;;9.52;;
2810;SDS011;1413;52.440;13.506;2022-11-27T06:30:51;22.35;;;9.20;;
2810;SDS011;1413;52.440;13.506;2022-11-27T06:33:18;21.63;;;9.10;;
2810;SDS011;1413;52.440;13.506;2022-11-27T06:35:46;18.88;;;8.80;;
2810;SDS011;1413;52.440;13.506;2022-11-27T06:38:13;20.27;;;9.18;;
2810;SDS011;1413;52.440;13.506;2022-11-27T06:40:41;23.80;;;8.48;;
2810;SDS011;1413;52.440;13.506;2022-11-27T06:43:08;23.02;;;8.65;;
2810;SDS011;1413;52.440;13.506;2022-11-27T06:45:37;34.70;;;13.13;;
2810;SDS011;1413;52.440;13.506;2022-11-27T06:48:05;21.65;;;9.63;;
2810;SDS011;1413;52.440;13.506;2022-11-27T06:50:32;25.60;;;9.60;;
2810;SDS011;1413;52.440;13.506;2022-11-27T06:53:00;25.65;;;9.25;;
2810;SDS011;1413;52.440;13.506;2022-11-27T06:55:27;26.00;;;10.05;;
2810;SDS011;1413;52.440;13.506;2022-11-27T06:57:55;20.90;;;9.52;;
2810;SDS011;1413;52.440;13.506;2022-11-27T07:00:22;20.77;;;8.32;;
2810;SDS011;1413;52.440;13.506;2022-11-27T07:02:53;23.55;;;9.32;;
2810;SDS011;1413;52.440;13.506;2022-11-27T07:05:21;25.70;;;9.32;;
2810;SDS011;1413;52.440;13.506;2022-11-27T07:07:49;24.17;;;9.18;;
2810;SDS011;1413;52.440;13.506;2022-11-27T07:10:17;22.42;;;9.05;;
2810;SDS011;1413;52.440;13.506;2022-11-27T07:12:44;24.20;;;9.05;;
2810;SDS011;1413;52.440;13.506;2022-11-27T07:15:12;21.50;;;8.90;;
2810;SDS011;1413;52.440;13.506;2022-11-27T07:17:39;21.42;;;9.43;;
2810;SDS011;1413;52.440;13.506;2022-11-27T07:20:09;24.10;;;9.10;;
2810;SDS011;1413;52.440;13.506;2022-11-27T07:22:37;23.65;;;8.85;;
2810;SDS011;1413;52.440;13.506;2022-11-27T07:25:05;20.77;;;9.35;;
2810;SDS011;1413;52.440;13.506;2022-11-27T07:27:32;20.33;;;9.93;;
2810;SDS011;1413;52.440;13.506;2022-11-27T07:30:00;24.73;;;9.07;;
2810;SDS011;1413;52.440;13.506;2022-11-27T07:32:27;21.95;;;9.75;;
2810;SDS011;1413;52.440;13.506;2022-11-27T07:34:55;27.83;;;9.63;;
2810;SDS011;1413;52.440;13.506;2022-11-27T07:37:23;24.13;;;9.73;;
2810;SDS011;1413;52.440;13.506;2022-11-27T07:39:51;24.90;;;9.82;;
2810;SDS011;1413;52.440;13.506;2022-11-27T07:42:28;22.35;;;9.48;;
2810;SDS011;1413;52.440;13.506;2022-11-27T07:45:05;20.35;;;8.55;;
2810;SDS011;1413;52.440;13.506;2022-11-27T07:47:32;22.00;;;9.63;;
2810;SDS011;1413;52.440;13.506;2022-11-27T07:50:00;25.05;;;9.98;;
2810;SDS011;1413;52.440;13.506;2022-11-27T07:52:29;22.48;;;9.45;;
2810;SDS011;1413;52.440;13.506;2022-11-27T07:54:58;18.60;;;8.68;;
2810;SDS011;1413;52.440;13.506;2022-11-27T07:57:26;22.65;;;9.98;;
2810;SDS011;1413;52.440;13.506;2022-11-27T07:59:54;18.17;;;8.77;;
2810;SDS011;1413;52.440;13.506;2022-11-27T08:02:21;24.92;;;9.63;;
2810;SDS011;1413;52.440;13.506;2022-11-27T08:04:49;24.88;;;10.07;;
2810;SDS011;1413;52.440;13.506;2022-11-27T08:07:16;29.27;;;11.73;;
2810;SDS011;1413;52.440;13.506;2022-11-27T08:09:45;24.73;;;10.55;;
2810;SDS011;1413;52.440;13.506;2022-11-27T08:12:13;22.23;;;9.57;;
2810;SDS011;1413;52.440;13.506;2022-11-27T08:14:40;23.83;;;10.38;;
2810;SDS011;1413;52.440;13.506;2022-11-27T08:17:08;22.58;;;9.95;;
2810;SDS011;1413;52.440;13.506;2022-11-27T08:19:38;21.45;;;9.82;;
2810;SDS011;1413;52.440;13.506;2022-11-27T08:22:08;24.27;;;9.50;;
2810;SDS011;1413;52.440;13.506;2022-11-27T08:24:36;25.48;;;11.38;;
2810;SDS011;1413;52.440;13.506;2022-11-27T08:27:06;24.65;;;10.32;;
2810;SDS011;1413;52.440;13.506;2022-11-27T08:29:33;28.55;;;12.27;;
2810;SDS011;1413;52.440;13.506;2022-11-27T08:32:01;26.50;;;10.48;;
2810;SDS011;1413;52.440;13.506;2022-11-27T08:34:29;26.20;;;11.98;;
2810;SDS011;1413;52.440;13.506;2022-11-27T08:36:56;24.75;;;10.85;;
2810;SDS011;1413;52.440;13.506;2022-11-27T08:39:24;23.55;;;10.27;;
2810;SDS011;1413;52.440;13.506;2022-11-27T08:41:52;20.45;;;9.98;;
2810;SDS011;1413;52.440;13.506;2022-11-27T08:44:21;23.08;;;10.05;;
2810;SDS011;1413;52.440;13.506;2022-11-27T08:46:49;22.35;;;10.75;;
2810;SDS011;1413;52.440;13.506;2022-11-27T08:49:16;24.75;;;11.30;;
2810;SDS011;1413;52.440;13.506;2022-11-27T08:51:44;21.83;;;10.00;;
2810;SDS011;1413;52.440;13.506;2022-11-27T08:54:12;24.60;;;10.55;;
2810;SDS011;1413;52.440;13.506;2022-11-27T08:56:39;23.55;;;10.10;;
2810;SDS011;1413;52.440;13.506;2022-11-27T08:59:07;23.70;;;10.68;;
2810;SDS011;1413;52.440;13.506;2022-11-27T09:01:36;21.10;;;9.90;;
2810;SDS011;1413;52.440;13.506;2022-11-27T09:04:03;22.40;;;10.02;;
2810;SDS011;1413;52.440;13.506;2022-11-27T09:06:31;24.27;;;10.73;;
2810;SDS011;1413;52.440;13.506;2022-11-27T09:09:00;21.23;;;10.23;;
2810;SDS011;1413;52.440;13.506;2022-11-27T09:11:28;26.02;;;10.07;;
2810;SDS011;1413;52.440;13.506;2022-11-27T09:13:57;20.63;;;9.10;;
2810;SDS011;1413;52.440;13.506;2022-11-27T09:16:24;19.10;;;10.07;;
2810;SDS011;1413;52.440;13.506;2022-11-27T09:18:54;20.55;;;9.50;;
2810;SDS011;1413;52.440;13.506;2022-11-27T09:21:23;21.35;;;9.52;;
2810;SDS011;1413;52.440;13.506;2022-11-27T09:23:52;20.83;;;8.85;;
2810;SDS011;1413;52.440;13.506;2022-11-27T09:26:20;19.23;;;8.50;;
2810;SDS011;1413;52.440;13.506;2022-11-27T09:28:49;18.67;;;8.95;;
2810;SDS011;1413;52.440;13.506;2022-11-27T09:31:16;21.67;;;9.73;;
2810;SDS011;1413;52.440;13.506;2022-11-27T09:33:44;24.13;;;9.23;;
2810;SDS011;1413;52.440;13.506;2022-11-27T09:36:14;26.10;;;9.63;;
2810;SDS011;1413;52.440;13.506;2022-11-27T09:38:42;19.90;;;9.45;;
2810;SDS011;1413;52.440;13.506;2022-11-27T09:41:17;23.80;;;9.27;;
2810;SDS011;1413;52.440;13.506;2022-11-27T09:43:48;18.33;;;8.63;;
2810;SDS011;1413;52.440;13.506;2022-11-27T09:46:19;20.33;;;9.40;;
2810;SDS011;1413;52.440;13.506;2022-11-27T09:48:50;17.63;;;8.50;;
2810;SDS011;1413;52.440;13.506;2022-11-27T09:51:21;19.58;;;8.00;;
2810;SDS011;1413;52.440;13.506;2022-11-27T09:53:51;17.73;;;7.80;;
2810;SDS011;1413;52.440;13.506;2022-11-27T09:56:22;18.73;;;8.57;;
2810;SDS011;1413;52.440;13.506;2022-11-27T09:58:53;17.38;;;8.65;;
2810;SDS011;1413;52.440;13.506;2022-11-27T10:01:23;17.42;;;8.05;;
2810;SDS011;1413;52.440;13.506;2022-11-27T10:04:03;24.88;;;9.32;;
2810;SDS011;1413;52.440;13.506;2022-11-27T10:06:35;17.70;;;7.88;;
2810;SDS011;1413;52.440;13.506;2022-11-27T10:09:10;17.73;;;7.68;;
2810;SDS011;1413;52.440;13.506;2022-11-27T10:11:45;15.15;;;7.80;;
2810;SDS011;1413;52.440;13.506;2022-11-27T10:14:26;15.98;;;7.38;;
2810;SDS011;1413;52.440;13.506;2022-11-27T10:16:58;18.33;;;7.35;;
2810;SDS011;1413;52.440;13.506;2022-11-27T10:19:30;17.13;;;7.82;;
2810;SDS011;1413;52.440;13.506;2022-11-27T10:22:00;15.60;;;6.95;;
2810;SDS011;1413;52.440;13.506;2022-11-27T10:24:30;16.60;;;7.20;;
2810;SDS011;1413;52.440;13.506;2022-11-27T10:27:02;13.93;;;6.60;;
2810;SDS011;1413;52.440;13.506;2022-11-27T10:29:35;15.50;;;6.53;;
2810;SDS011;1413;52.440;13.506;2022-11-27T10:32:03;13.20;;;6.03;;
2810;SDS011;1413;52.440;13.506;2022-11-27T10:34:33;14.07;;;6.95;;
2810;SDS011;1413;52.440;13.506;2022-11-27T10:37:06;16.30;;;7.20;;
2810;SDS011;1413;52.440;13.506;2022-11-27T10:39:38;13.73;;;5.78;;
2810;SDS011;1413;52.440;13.506;2022-11-27T10:42:08;16.30;;;6.35;;
2810;SDS011;1413;52.440;13.506;2022-11-27T10:44:37;14.27;;;6.20;;
2810;SDS011;1413;52.440;13.506;2022-11-27T10:47:07;11.00;;;5.60;;
2810;SDS011;1413;52.440;13.506;2022-11-27T10:49:36;17.65;;;6.40;;
2810;SDS011;1413;52.440;13.506;2022-11-27T10:52:09;18.05;;;7.40;;
2810;SDS011;1413;52.440;13.506;2022-11-27T10:54:38;13.98;;;6.45;;
2810;SDS011;1413;52.440;13.506;2022-11-27T10:59:57;16.45;;;6.60;;
2810;SDS011;1413;52.440;13.506;2022-11-27T11:02:27;16.20;;;6.63;;
2810;SDS011;1413;52.440;13.506;2022-11-27T11:04:55;13.07;;;6.00;;
2810;SDS011;1413;52.440;13.506;2022-11-27T11:07:52;18.10;;;7.43;;
2810;SDS011;1413;52.440;13.506;2022-11-27T11:10:23;10.25;;;6.03;;
2810;SDS011;1413;52.440;13.506;2022-11-27T11:13:02;13.18;;;5.50;;
2810;SDS011;1413;52.440;13.506;2022-11-27T11:15:30;8.93;;;4.95;;
2810;SDS011;1413;52.440;13.506;2022-11-27T11:17:57;11.48;;;5.55;;
2810;SDS011;1413;52.440;13.506;2022-11-27T11:20:25;11.95;;;5.05;;
2810;SDS011;1413;52.440;13.506;2022-11-27T11:22:54;16.73;;;5.38;;
2810;SDS011;1413;52.440;13.506;2022-11-27T11:25:21;20.33;;;7.53;;
2810;SDS011;1413;52.440;13.506;2022-11-27T11:27:49;15.80;;;6.60;;
2810;SDS011;1413;52.440;13.506;2022-11-27T11:30:20;20.70;;;8.40;;
2810;SDS011;1413;52.440;13.506;2022-11-27T11:32:48;15.43;;;6.38;;
2810;SDS011;1413;52.440;13.506;2022-11-27T11:35:24;15.18;;;6.07;;
2810;SDS011;1413;52.440;13.506;2022-11-27T11:37:52;12.07;;;4.95;;
2810;SDS011;1413;52.440;13.506;2022-11-27T11:40:22;11.57;;;5.00;;
2810;SDS011;1413;52.440;13.506;2022-11-27T11:45:18;12.63;;;4.95;;
2810;SDS011;1413;52.440;13.506;2022-11-27T11:47:47;12.85;;;4.97;;
2810;SDS011;1413;52.440;13.506;2022-11-27T11:50:16;11.63;;;5.03;;
2810;SDS011;1413;52.440;13.506;2022-11-27T11:52:50;9.70;;;4.65;;
2810;SDS011;1413;52.440;13.506;2022-11-27T11:55:24;17.58;;;5.18;;
2810;SDS011;1413;52.440;13.506;2022-11-27T12:00:40;11.05;;;5.20;;
2810;SDS011;1413;52.440;13.506;2022-11-27T12:08:41;10.55;;;4.43;;
2810;SDS011;1413;52.440;13.506;2022-11-27T12:11:13;9.07;;;4.40;;
2810;SDS011;1413;52.440;13.506;2022-11-27T12:13:44;8.27;;;3.97;;
2810;SDS011;1413;52.440;13.506;2022-11-27T12:16:16;12.05;;;4.43;;
2810;SDS011;1413;52.440;13.506;2022-11-27T12:18:51;9.93;;;3.90;;
2810;SDS011;1413;52.440;13.506;2022-11-27T12:21:20;12.85;;;3.78;;
2810;SDS011;1413;52.440;13.506;2022-11-27T12:23:52;7.97;;;3.92;;
2810;SDS011;1413;52.440;13.506;2022-11-27T12:26:27;8.10;;;3.70;;
2810;SDS011;1413;52.440;13.506;2022-11-27T12:32:04;8.88;;;3.45;;
2810;SDS011;1413;52.440;13.506;2022-11-27T12:34:35;8.82;;;3.90;;
2810;SDS011;1413;52.440;13.506;2022-11-27T12:37:10;9.73;;;4.03;;
2810;SDS011;1413;52.440;13.506;2022-11-27T12:39:44;9.77;;;4.22;;
2810;SDS011;1413;52.440;13.506;2022-11-27T12:42:18;8.70;;;3.70;;
2810;SDS011;1413;52.440;13.506;2022-11-27T12:44:49;10.77;;;4.10;;
2810;SDS011;1413;52.440;13.506;2022-11-27T12:47:21;9.13;;;3.92;;
2810;SDS011;1413;52.440;13.506;2022-11-27T12:49:49;11.57;;;4.10;;
2810;SDS011;1413;52.440;13.506;2022-11-27T12:52:18;10.40;;;4.18;;
2810;SDS011;1413;52.440;13.506;2022-11-27T12:54:47;10.52;;;4.55;;
2810;SDS011;1413;52.440;13.506;2022-11-27T12:57:19;10.52;;;3.75;;
2810;SDS011;1413;52.440;13.506;2022-11-27T13:02:27;9.30;;;3.95;;
2810;SDS011;1413;52.440;13.506;2022-11-27T13:04:56;10.38;;;3.90;;
2810;SDS011;1413;52.440;13.506;2022-11-27T13:07:27;10.57;;;4.10;;
2810;SDS011;1413;52.440;13.506;2022-11-27T13:09:56;10.70;;;4.65;;
2810;SDS011;1413;52.440;13.506;2022-11-27T13:12:27;11.05;;;4.60;;
2810;SDS011;1413;52.440;13.506;2022-11-27T13:14:58;9.43;;;3.88;;
2810;SDS011;1413;52.440;13.506;2022-11-27T13:17:28;7.82;;;3.63;;
2810;SDS011;1413;52.440;13.506;2022-11-27T13:19:58;10.05;;;4.25;;
2810;SDS011;1413;52.440;13.506;2022-11-27T13:22:27;7.93;;;3.45;;
2810;SDS011;1413;52.440;13.506;2022-11-27T13:24:58;10.23;;;3.40;;
2810;SDS011;1413;52.440;13.506;2022-11-27T13:27:28;9.05;;;3.50;;
2810;SDS011;1413;52.440;13.506;2022-11-27T13:29:57;8.88;;;3.55;;
2810;SDS011;1413;52.440;13.506;2022-11-27T13:32:27;8.30;;;3.75;;
2810;SDS011;1413;52.440;13.506;2022-11-27T13:34:56;10.77;;;4.13;;
2810;SDS011;1413;52.440;13.506;2022-11-27T13:37:26;10.27;;;3.80;;
2810;SDS011;1413;52.440;13.506;2022-11-27T13:39:58;11.93;;;3.40;;
2810;SDS011;1413;52.440;13.506;2022-11-27T13:42:26;9.38;;;3.70;;
2810;SDS011;1413;52.440;13.506;2022-11-27T13:44:56;7.45;;;3.40;;
2810;SDS011;1413;52.440;13.506;2022-11-27T13:47:25;7.18;;;3.70;;
2810;SDS011;1413;52.440;13.506;2022-11-27T13:49:57;8.23;;;3.30;;
2810;SDS011;1413;52.440;13.506;2022-11-27T13:52:26;7.90;;;3.70;;
2810;SDS011;1413;52.440;13.506;2022-11-27T13:54:55;8.02;;;3.00;;
2810;SDS011;1413;52.440;13.506;2022-11-27T13:57:23;8.32;;;4.22;;
2810;SDS011;1413;52.440;13.506;2022-11-27T13:59:59;13.52;;;4.28;;
2810;SDS011;1413;52.440;13.506;2022-11-27T14:02:38;7.38;;;2.92;;
2810;SDS011;1413;52.440;13.506;2022-11-27T14:05:06;10.20;;;3.50;;
2810;SDS011;1413;52.440;13.506;2022-11-27T14:07:34;11.77;;;3.67;;
2810;SDS011;1413;52.440;13.506;2022-11-27T14:10:07;10.05;;;3.88;;
2810;SDS011;1413;52.440;13.506;2022-11-27T14:12:35;9.90;;;3.90;;
2810;SDS011;1413;52.440;13.506;2022-11-27T14:15:06;10.10;;;4.07;;
2810;SDS011;1413;52.440;13.506;2022-11-27T14:17:36;9.55;;;3.38;;
2810;SDS011;1413;52.440;13.506;2022-11-27T14:20:19;8.85;;;3.70;;
2810;SDS011;1413;52.440;13.506;2022-11-27T14:22:47;9.68;;;3.78;;
2810;SDS011;1413;52.440;13.506;2022-11-27T14:25:35;9.45;;;3.53;;
2810;SDS011;1413;52.440;13.506;2022-11-27T14:28:05;8.15;;;3.50;;
2810;SDS011;1413;52.440;13.506;2022-11-27T14:33:16;8.02;;;3.38;;
2810;SDS011;1413;52.440;13.506;2022-11-27T14:35:46;12.23;;;3.53;;
2810;SDS011;1413;52.440;13.506;2022-11-27T14:38:14;9.25;;;3.78;;
2810;SDS011;1413;52.440;13.506;2022-11-27T14:40:42;7.03;;;3.17;;
2810;SDS011;1413;52.440;13.506;2022-11-27T14:43:12;11.00;;;3.50;;
2810;SDS011;1413;52.440;13.506;2022-11-27T14:45:41;7.45;;;3.20;;
2810;SDS011;1413;52.440;13.506;2022-11-27T14:48:20;10.20;;;3.92;;
2810;SDS011;1413;52.440;13.506;2022-11-27T14:50:49;13.98;;;4.00;;
2810;SDS011;1413;52.440;13.506;2022-11-27T14:53:17;12.05;;;3.75;;
2810;SDS011;1413;52.440;13.506;2022-11-27T14:55:45;9.38;;;3.65;;
2810;SDS011;1413;52.440;13.506;2022-11-27T14:58:16;12.70;;;4.03;;
2810;SDS011;1413;52.440;13.506;2022-11-27T15:00:51;9.02;;;3.90;;
2810;SDS011;1413;52.440;13.506;2022-11-27T15:03:20;8.13;;;4.10;;
2810;SDS011;1413;52.440;13.506;2022-11-27T15:05:51;10.73;;;4.15;;
2810;SDS011;1413;52.440;13.506;2022-11-27T15:08:19;8.68;;;4.20;;
2810;SDS011;1413;52.440;13.506;2022-11-27T15:10:47;9.65;;;4.40;;
2810;SDS011;1413;52.440;13.506;2022-11-27T15:13:17;12.35;;;3.83;;
2810;SDS011;1413;52.440;13.506;2022-11-27T15:15:51;9.73;;;4.03;;
2810;SDS011;1413;52.440;13.506;2022-11-27T15:18:21;11.25;;;4.50;;
2810;SDS011;1413;52.440;13.506;2022-11-27T15:20:49;11.38;;;4.40;;
2810;SDS011;1413;52.440;13.506;2022-11-27T15:23:18;9.23;;;4.03;;
2810;SDS011;1413;52.440;13.506;2022-11-27T15:25:46;14.10;;;3.92;;
2810;SDS011;1413;52.440;13.506;2022-11-27T15:28:25;9.20;;;4.07;;
2810;SDS011;1413;52.440;13.506;2022-11-27T15:30:53;11.90;;;4.43;;